Time;durP1;ratioP1;P1;durP2;ratioP2;P2;SDS_P1;SDS_P2;PMS_P1;PMS_P2;Temp;Humidity;BMP_temperature;BMP_pressure;BME280_temperature;BME280_humidity;BME280_pressure;Samples;Min_cycle;Max_cycle;Signal;HPM_P1;HPM_P2
2022/03/28 07:58:49;;;;;;;32.90;19.83;;;;;;;9.50;74.09;102263.13;5304915;27;1200190;-76
2022/03/28 08:01:20;;;;;;;29.88;18.77;;;;;;;9.57;73.83;102258.28;5344212;28;20371;-76
2022/03/28 08:03:53;;;;;;;35.13;19.30;;;;;;;9.65;73.81;102245.13;5343743;28;20016;-76
2022/03/28 08:06:24;;;;;;;29.70;17.67;;;;;;;9.70;73.84;102256.28;5343889;27;20061;-76
2022/03/28 08:08:55;;;;;;;31.00;18.05;;;;;;;9.67;73.07;102248.47;5343610;28;20027;-77
2022/03/28 08:11:26;;;;;;;27.92;17.90;;;;;;;9.77;72.77;102245.91;5343855;28;20363;-76
2022/03/28 08:14:00;;;;;;;38.53;19.30;;;;;;;9.87;72.63;102246.06;5343245;27;20459;-76
2022/03/28 08:16:32;;;;;;;30.83;17.52;;;;;;;9.79;72.63;102238.16;5343229;27;20049;-77
2022/03/28 08:19:03;;;;;;;31.75;16.85;;;;;;;9.94;72.98;102241.19;5342805;27;20502;-77
2022/03/28 08:21:35;;;;;;;28.15;17.23;;;;;;;9.88;73.11;102230.28;5343760;28;20055;-77
2022/03/28 08:24:06;;;;;;;35.53;18.13;;;;;;;9.95;73.01;102237.34;5343223;27;20023;-77
2022/03/28 08:26:38;;;;;;;34.42;17.00;;;;;;;9.97;72.79;102234.28;5343079;28;20066;-76
2022/03/28 08:29:09;;;;;;;31.90;19.40;;;;;;;10.01;72.32;102224.41;5343367;27;20409;-77
2022/03/28 08:31:41;;;;;;;29.30;17.77;;;;;;;10.07;72.16;102222.53;5344284;27;20015;-76
2022/03/28 08:34:12;;;;;;;31.13;16.73;;;;;;;10.18;71.87;102221.63;5341851;27;20028;-76
2022/03/28 08:36:43;;;;;;;28.70;17.20;;;;;;;10.24;71.35;102217.81;5341792;28;20383;-76
2022/03/28 08:39:15;;;;;;;29.55;18.17;;;;;;;10.34;71.57;102220.78;5321364;28;20027;-77
2022/03/28 08:41:47;;;;;;;30.50;17.98;;;;;;;10.53;70.75;102220.47;5321193;28;20474;-76
2022/03/28 08:44:20;;;;;;;31.10;18.70;;;;;;;10.61;70.21;102218.13;5321704;28;20020;-76
2022/03/28 08:46:53;;;;;;;31.52;19.45;;;;;;;10.65;69.95;102221.22;5330381;28;20051;-77
2022/03/28 08:49:25;;;;;;;29.50;17.67;;;;;;;10.74;69.60;102216.91;5355385;27;20418;-76
2022/03/28 08:51:56;;;;;;;30.75;17.58;;;;;;;10.75;70.18;102210.25;5342836;28;20031;-76
2022/03/28 08:54:27;;;;;;;30.70;16.77;;;;;;;10.71;69.77;102209.09;5342357;28;20027;-76
2022/03/28 08:56:59;;;;;;;30.00;18.25;;;;;;;10.81;69.56;102211.16;5335759;27;20100;-76
2022/03/28 08:59:30;;;;;;;30.65;17.35;;;;;;;10.88;69.88;102207.06;5338076;28;20088;-77
2022/03/28 09:02:01;;;;;;;31.38;19.27;;;;;;;10.90;69.41;102206.84;5342022;27;20032;-76
2022/03/28 09:04:35;;;;;;;30.83;17.70;;;;;;;10.87;69.25;102205.41;5345352;27;20027;-77
2022/03/28 09:07:06;;;;;;;25.63;17.48;;;;;;;10.94;69.02;102207.16;5353287;27;20084;-76
2022/03/28 09:09:39;;;;;;;33.95;19.08;;;;;;;11.01;69.09;102205.84;5329866;28;20028;-76
2022/03/28 09:12:10;;;;;;;33.30;18.67;;;;;;;11.09;69.23;102212.88;5328382;28;20529;-78
2022/03/28 09:14:45;;;;;;;28.25;19.10;;;;;;;11.16;68.82;102205.19;5326431;28;20035;-77
2022/03/28 09:17:19;;;;;;;38.08;20.80;;;;;;;11.29;68.78;102201.16;5327069;28;20036;-78
2022/03/28 09:19:55;;;;;;;31.38;19.02;;;;;;;11.29;69.34;102202.00;5328240;28;20370;-77
2022/03/28 09:22:32;;;;;;;27.95;19.65;;;;;;;11.37;69.03;102199.84;5337472;27;20447;-77
2022/03/28 09:25:08;;;;;;;33.42;22.13;;;;;;;11.44;68.92;102203.25;5331017;27;20455;-77
2022/03/28 09:27:41;;;;;;;32.75;20.70;;;;;;;11.46;67.99;102201.06;5316275;27;20020;-77
2022/03/28 09:30:19;;;;;;;86.03;74.32;;;;;;;11.59;67.75;102202.56;5307731;28;20467;-76
2022/03/28 09:32:54;;;;;;;65.03;49.53;;;;;;;11.66;67.47;102200.44;5310337;28;20102;-77
2022/03/28 09:35:26;;;;;;;35.72;22.50;;;;;;;11.69;66.68;102203.50;5309893;28;20028;-77
2022/03/28 09:38:07;;;;;;;34.28;22.80;;;;;;;11.78;66.40;102203.00;5327574;28;20035;-77
2022/03/28 09:40:44;;;;;;;31.88;21.55;;;;;;;11.79;66.52;102191.66;5341455;27;20081;-77
2022/03/28 09:43:17;;;;;;;30.58;20.45;;;;;;;11.87;66.30;102196.75;5328418;28;20026;-76
2022/03/28 09:45:56;;;;;;;34.53;20.67;;;;;;;11.97;67.29;102190.44;5327482;28;20028;-76
2022/03/28 09:48:28;;;;;;;33.67;19.52;;;;;;;12.12;66.58;102178.59;5326871;28;20059;-77
2022/03/28 09:51:05;;;;;;;31.70;19.85;;;;;;;12.14;66.70;102184.69;5326505;28;20024;-77
2022/03/28 09:53:38;;;;;;;38.08;25.17;;;;;;;12.22;66.64;102172.22;5326703;28;20339;-76
2022/03/28 09:56:11;;;;;;;32.15;19.40;;;;;;;12.37;67.08;102172.31;5327868;27;20479;-77
2022/03/28 09:58:46;;;;;;;33.22;20.02;;;;;;;12.33;67.17;102171.19;5310792;28;20040;-77
2022/03/28 10:01:20;;;;;;;;;;;;;;;12.53;66.75;102168.53;5310685;28;20031;-78
2022/03/28 10:03:58;;;;;;;32.30;21.67;;;;;;;12.55;65.84;102163.53;5326222;28;19976;-78
2022/03/28 10:06:29;;;;;;;30.90;21.02;;;;;;;12.74;65.15;102165.84;5325620;28;20023;-78
2022/03/28 10:09:01;;;;;;;31.88;21.58;;;;;;;12.86;64.69;102166.44;5326780;28;20371;-78
2022/03/28 10:11:32;;;;;;;31.35;22.55;;;;;;;12.90;63.53;102170.34;5333777;28;20020;-79
2022/03/28 10:14:03;;;;;;;33.22;21.80;;;;;;;13.01;63.74;102165.63;5327347;28;20021;-80
2022/03/28 10:16:36;;;;;;;36.38;24.10;;;;;;;13.11;62.96;102162.03;5327351;28;20467;-79
2022/03/28 10:19:08;;;;;;;36.67;23.85;;;;;;;13.17;62.13;102158.19;5326600;28;20027;-79
2022/03/28 10:21:40;;;;;;;29.70;22.20;;;;;;;13.26;61.08;102162.94;5326176;28;20032;-79
2022/03/28 10:24:22;;;;;;;36.50;24.63;;;;;;;13.39;60.29;102152.38;5325979;28;20487;-78
2022/03/28 10:26:57;;;;;;;32.83;24.63;;;;;;;13.41;57.94;102142.63;5324541;28;20031;-79
2022/03/28 10:29:42;;;;;;;32.60;24.92;;;;;;;13.48;58.20;102145.97;5327328;27;20092;-77
2022/03/28 10:32:20;;;;;;;35.10;23.35;;;;;;;13.47;59.19;102133.16;5327295;28;20467;-77
2022/03/28 10:34:56;;;;;;;32.83;22.10;;;;;;;13.54;59.30;102129.25;5332117;28;20020;-78
2022/03/28 10:38:12;;;;;;;36.40;23.60;;;;;;;13.74;59.14;102132.03;5325480;28;20048;-78
2022/03/28 10:41:03;;;;;;;32.53;23.35;;;;;;;13.75;58.03;102118.94;5326075;28;20051;-78
2022/03/28 10:43:35;;;;;;;41.60;31.75;;;;;;;13.79;57.69;102118.09;5326579;28;20051;-78
2022/03/28 10:46:09;;;;;;;36.35;24.42;;;;;;;13.89;57.84;102109.72;5326508;28;20111;-78
2022/03/28 10:48:53;;;;;;;27.33;21.67;;;;;;;14.05;57.83;102106.91;5339112;27;20032;-76
2022/03/28 10:51:30;;;;;;;35.35;23.35;;;;;;;14.09;58.02;102110.81;5326312;28;20023;-78
2022/03/28 10:54:05;;;;;;;33.15;22.35;;;;;;;14.10;57.98;102106.88;5325371;28;20497;-82
2022/03/28 10:56:40;;;;;;;29.10;21.33;;;;;;;14.21;58.31;102102.09;5322687;28;20512;-82
2022/03/28 10:59:19;;;;;;;35.57;22.73;;;;;;;14.21;58.52;102102.94;5319078;28;20035;-80
2022/03/28 11:01:53;;;;;;;30.50;21.85;;;;;;;14.35;58.12;102095.63;5325594;28;20269;-78
2022/03/28 11:04:26;;;;;;;31.02;22.02;;;;;;;14.28;56.54;102106.25;5330668;27;20023;-77
2022/03/28 11:07:00;;;;;;;30.15;21.63;;;;;;;14.20;56.82;102097.66;5325724;28;20020;-78
2022/03/28 11:09:40;;;;;;;31.38;19.73;;;;;;;14.36;57.79;102097.28;5324706;28;20106;-77
2022/03/28 11:12:14;;;;;;;32.08;21.55;;;;;;;14.35;57.93;102094.81;5324911;28;20483;-77
2022/03/28 11:14:47;;;;;;;30.60;21.65;;;;;;;14.43;57.31;102090.59;5324409;28;20035;-78
2022/03/28 11:17:20;;;;;;;27.98;20.45;;;;;;;14.56;57.45;102090.00;5324244;28;20027;-78
2022/03/28 11:20:12;;;;;;;30.42;22.75;;;;;;;14.46;56.67;102085.25;5325313;28;20032;-78
2022/03/28 11:23:08;;;;;;;28.48;20.73;;;;;;;14.63;53.52;102084.13;5337470;27;20395;-77
2022/03/28 11:25:43;;;;;;;28.87;18.97;;;;;;;14.64;52.98;102080.19;5325227;28;20102;-77
2022/03/28 11:28:21;;;;;;;26.60;18.75;;;;;;;14.68;52.39;102073.75;5325996;28;20313;-78
2022/03/28 11:30:59;;;;;;;30.17;18.40;;;;;;;14.71;52.15;102075.13;5324394;28;20495;-77
2022/03/28 11:33:40;;;;;;;30.15;19.65;;;;;;;14.88;51.46;102075.59;5326196;28;20035;-77
2022/03/28 11:36:14;;;;;;;28.23;18.80;;;;;;;14.92;51.59;102064.66;5319005;28;20387;-77
2022/03/28 11:38:49;;;;;;;24.77;18.88;;;;;;;14.96;52.00;102066.59;5320533;28;20031;-78
2022/03/28 11:41:25;;;;;;;27.17;17.88;;;;;;;15.08;51.37;102063.41;5324836;28;20051;-78
2022/03/28 11:43:57;;;;;;;24.33;18.13;;;;;;;15.14;51.68;102059.47;5325169;28;20422;-77
2022/03/28 11:46:31;;;;;;;26.20;19.00;;;;;;;15.17;50.84;102055.28;5325742;28;20411;-74
2022/03/28 11:49:08;;;;;;;26.05;19.98;;;;;;;15.23;51.84;102048.50;5325541;28;20047;-75
2022/03/28 11:51:43;;;;;;;25.70;18.67;;;;;;;15.36;51.73;102052.59;5323710;28;20463;-75
2022/03/28 11:54:19;;;;;;;28.92;20.15;;;;;;;15.42;52.02;102045.84;5325301;28;20035;-75
2022/03/28 11:59:42;;;;;;;25.13;17.63;;;;;;;15.79;51.35;102036.81;5325059;28;19915;-74
2022/03/28 12:02:13;;;;;;;24.35;17.88;;;;;;;15.85;50.87;102034.81;5324609;28;20473;-75
2022/03/28 12:04:45;;;;;;;22.45;18.33;;;;;;;15.90;50.80;102034.78;5324608;28;20115;-76
2022/03/28 12:07:16;;;;;;;26.27;18.40;;;;;;;15.90;50.89;102034.78;5324054;28;20028;-77
2022/03/28 12:09:48;;;;;;;30.33;23.10;;;;;;;15.78;48.49;102026.78;5325070;28;20028;-76
2022/03/28 12:12:19;;;;;;;32.05;22.63;;;;;;;15.91;49.11;102030.00;5324627;28;20054;-76
2022/03/28 12:14:51;;;;;;;40.22;28.88;;;;;;;16.00;47.77;102029.06;5325025;28;20051;-76
2022/03/28 12:17:30;;;;;;;23.80;15.00;;;;;;;16.01;47.68;102029.88;5325042;28;20023;-76
2022/03/28 12:20:06;;;;;;;17.50;13.52;;;;;;;15.77;47.00;102019.53;5324317;28;20528;-76
2022/03/28 12:22:45;;;;;;;20.17;15.25;;;;;;;16.07;47.36;102011.88;5324808;28;20470;-76
2022/03/28 12:25:30;;;;;;;21.95;16.70;;;;;;;15.98;47.84;102008.94;5324434;28;20092;-76
2022/03/28 12:28:05;;;;;;;22.50;15.38;;;;;;;16.32;48.08;102007.09;5328035;28;20043;-78
2022/03/28 12:30:53;;;;;;;24.48;16.42;;;;;;;16.11;49.33;102001.78;5325468;28;20032;-78
2022/03/28 12:33:30;;;;;;;23.75;15.85;;;;;;;16.40;49.02;101998.84;5324467;28;20024;-77
2022/03/28 12:36:05;;;;;;;26.38;17.40;;;;;;;16.48;48.74;101994.56;5315510;28;20145;-76
2022/03/28 12:38:40;;;;;;;23.95;16.73;;;;;;;16.64;48.32;101990.41;5324459;28;20092;-75
2022/03/28 12:41:16;;;;;;;22.67;15.68;;;;;;;16.67;47.13;101983.38;5325204;28;20321;-75
2022/03/28 12:43:50;;;;;;;23.35;16.52;;;;;;;16.61;47.29;101976.16;5326857;28;20046;-75
2022/03/28 12:46:23;;;;;;;19.58;14.35;;;;;;;16.74;47.07;101975.38;5336163;27;20019;-76
2022/03/28 12:48:57;;;;;;;22.10;17.15;;;;;;;16.66;47.11;101968.50;5327927;28;20028;-76
2022/03/28 12:51:36;;;;;;;26.00;16.67;;;;;;;16.76;46.78;101963.91;5329179;28;20031;-75
2022/03/28 12:54:11;;;;;;;23.20;15.55;;;;;;;16.81;46.93;101956.25;5327949;27;20027;-75
2022/03/28 12:56:49;;;;;;;22.05;16.23;;;;;;;17.01;46.92;101955.09;5321295;28;20093;-73
2022/03/28 12:59:32;;;;;;;21.98;15.05;;;;;;;16.99;46.62;101959.34;5307137;28;20437;-75
2022/03/28 13:02:17;;;;;;;19.88;15.70;;;;;;;17.12;46.63;101950.97;5306131;28;20426;-74
2022/03/28 13:04:52;;;;;;;65.20;58.35;;;;;;;17.14;45.92;101959.91;5315174;28;20032;-76
2022/03/28 13:07:27;;;;;;;53.90;48.03;;;;;;;17.18;45.64;101946.13;5326416;28;20035;-73
2022/03/28 13:10:06;;;;;;;26.57;15.70;;;;;;;17.27;45.89;101944.25;5307018;28;20035;-74
2022/03/28 13:12:44;;;;;;;22.48;15.88;;;;;;;17.49;44.81;101928.72;5325879;28;20100;-73
2022/03/28 13:15:25;;;;;;;20.15;15.27;;;;;;;17.48;44.97;101932.66;5328031;28;20105;-74
2022/03/28 13:18:06;;;;;;;21.52;15.98;;;;;;;17.57;44.90;101928.00;5328504;28;20501;-74
2022/03/28 13:20:40;;;;;;;20.55;16.60;;;;;;;17.59;44.06;101934.13;5340271;27;20080;-73
2022/03/28 13:23:23;;;;;;;21.60;15.70;;;;;;;17.57;43.91;101928.81;5328208;27;20081;-73
2022/03/28 13:25:55;;;;;;;22.50;15.70;;;;;;;17.33;44.41;101926.22;5327289;28;20441;-73
2022/03/28 13:28:29;;;;;;;20.10;14.77;;;;;;;17.13;44.66;101910.59;5328124;28;20467;-73
2022/03/28 13:31:02;;;;;;;21.33;15.77;;;;;;;17.27;45.16;101907.00;5326942;28;20020;-73
2022/03/28 13:33:35;;;;;;;21.48;15.05;;;;;;;17.45;44.84;101905.25;5326034;28;20030;-73
2022/03/28 13:36:07;;;;;;;21.92;15.63;;;;;;;17.66;44.34;101900.88;5326365;28;20062;-73
2022/03/28 13:38:40;;;;;;;31.10;27.73;;;;;;;17.62;44.39;101904.63;5340301;27;20071;-73
2022/03/28 13:41:11;;;;;;;20.45;15.05;;;;;;;17.71;44.27;101891.50;5327623;28;20348;-73
2022/03/28 13:43:43;;;;;;;21.45;16.10;;;;;;;17.72;43.74;101898.81;5327058;28;20027;-74
2022/03/28 13:46:17;;;;;;;21.63;15.10;;;;;;;17.90;43.94;101888.63;5327780;28;20080;-75
2022/03/28 13:48:50;;;;;;;21.65;17.00;;;;;;;17.80;44.10;101900.91;5327271;27;20027;-74
2022/03/28 13:51:23;;;;;;;21.98;15.70;;;;;;;17.88;44.15;101897.34;5326011;28;20107;-73
2022/03/28 13:53:56;;;;;;;25.17;16.33;;;;;;;17.93;44.49;101896.41;5332073;27;20374;-73
2022/03/28 13:56:28;;;;;;;21.20;16.20;;;;;;;18.05;43.95;101885.50;5329400;27;20031;-73
2022/03/28 13:58:59;;;;;;;24.92;16.67;;;;;;;17.89;44.70;101882.16;5321265;28;20039;-72
2022/03/28 14:01:31;;;;;;;20.23;16.52;;;;;;;17.94;43.96;101875.63;5327398;28;20023;-69
2022/03/28 14:04:07;;;;;;;23.48;16.92;;;;;;;17.88;44.03;101880.53;5326186;28;20026;-72
2022/03/28 14:06:38;;;;;;;23.13;16.13;;;;;;;17.86;44.55;101881.97;5327080;28;20027;-74
2022/03/28 14:09:10;;;;;;;23.42;16.48;;;;;;;17.72;44.46;101877.19;5325164;28;20460;-72
2022/03/28 14:11:41;;;;;;;24.70;16.75;;;;;;;17.91;44.12;101874.28;5326534;27;20047;-72
2022/03/28 14:14:12;;;;;;;22.98;17.90;;;;;;;17.78;44.72;101875.91;5324897;28;20024;-70
2022/03/28 14:16:44;;;;;;;23.45;16.52;;;;;;;17.81;44.65;101871.69;5326568;28;20077;-72
2022/03/28 14:19:16;;;;;;;24.60;17.48;;;;;;;17.77;44.99;101870.66;5324692;28;20023;-72
2022/03/28 14:21:48;;;;;;;22.02;16.20;;;;;;;18.02;44.22;101864.50;5322539;28;20047;-72
2022/03/28 14:24:19;;;;;;;24.10;16.35;;;;;;;18.15;43.83;101857.19;5325479;28;20055;-73
2022/03/28 14:26:52;;;;;;;33.45;25.33;;;;;;;18.18;43.86;101856.53;5325881;28;20020;-72
2022/03/28 14:29:23;;;;;;;47.03;36.65;;;;;;;18.23;43.89;101867.66;5324777;27;20023;-72
2022/03/28 14:31:55;;;;;;;28.52;20.20;;;;;;;18.25;43.81;101856.94;5323701;28;20103;-74
2022/03/28 14:34:27;;;;;;;27.85;17.58;;;;;;;18.15;44.13;101850.72;5324311;28;20030;-73
2022/03/28 14:36:58;;;;;;;21.95;15.73;;;;;;;18.36;43.61;101853.88;5323406;28;20028;-74
2022/03/28 14:39:30;;;;;;;19.70;15.95;;;;;;;18.25;43.68;101856.09;5322969;28;20024;-73
2022/03/28 14:42:01;;;;;;;25.83;16.67;;;;;;;18.32;43.33;101844.44;5325467;28;20113;-72
2022/03/28 14:44:33;;;;;;;28.70;16.75;;;;;;;18.41;43.11;101845.34;5327403;27;20032;-74
2022/03/28 14:47:07;;;;;;;20.73;14.57;;;;;;;18.35;43.31;101839.00;5325464;28;20020;-73
2022/03/28 14:49:39;;;;;;;23.83;15.20;;;;;;;18.42;43.51;101841.38;5326045;28;20039;-73
2022/03/28 14:52:10;;;;;;;21.38;14.43;;;;;;;18.55;42.79;101834.84;5326027;28;20030;-74
2022/03/28 14:54:41;;;;;;;24.90;15.43;;;;;;;18.43;42.75;101835.44;5324946;28;20038;-73
2022/03/28 14:57:13;;;;;;;22.52;14.63;;;;;;;18.52;42.73;101829.06;5320908;27;20047;-74
2022/03/28 14:59:44;;;;;;;19.55;14.63;;;;;;;18.33;43.29;101824.47;5324702;28;20080;-72
2022/03/28 15:02:16;;;;;;;24.83;14.88;;;;;;;18.45;43.34;101832.28;5331756;27;20039;-73
2022/03/28 15:04:47;;;;;;;22.20;14.20;;;;;;;18.42;42.65;101828.16;5316884;28;20077;-72
2022/03/28 15:07:22;;;;;;;19.65;13.63;;;;;;;18.29;42.85;101817.00;5322234;28;20046;-72
2022/03/28 15:09:53;;;;;;;20.10;13.68;;;;;;;18.28;43.19;101821.78;5326168;28;20020;-73
2022/03/28 15:12:24;;;;;;;19.73;14.10;;;;;;;18.36;43.54;101823.00;5325696;28;20446;-77
2022/03/28 15:14:57;;;;;;;23.55;15.27;;;;;;;17.99;43.60;101820.19;5324543;28;20024;-71
2022/03/28 15:17:29;;;;;;;22.92;15.00;;;;;;;18.03;44.06;101815.63;5326013;28;20106;-71
2022/03/28 15:20:01;;;;;;;19.45;13.65;;;;;;;17.95;43.83;101809.94;5325612;27;20114;-70
2022/03/28 15:22:32;;;;;;;22.73;13.65;;;;;;;18.14;43.72;101810.59;5323385;28;20390;-72
2022/03/28 15:25:05;;;;;;;22.35;14.80;;;;;;;18.04;43.62;101810.84;5326523;28;20023;-72
2022/03/28 15:27:37;;;;;;;27.27;15.50;;;;;;;18.01;43.70;101805.84;5325892;28;20483;-70
2022/03/28 15:30:09;;;;;;;22.38;14.15;;;;;;;17.64;43.82;101802.19;5323321;28;20027;-72
2022/03/28 15:32:40;;;;;;;31.48;19.88;;;;;;;17.66;44.17;101804.66;5324464;28;20378;-70
2022/03/28 15:35:12;;;;;;;52.63;44.40;;;;;;;17.72;44.08;101795.84;5324720;27;20027;-73
2022/03/28 15:37:43;;;;;;;23.08;17.58;;;;;;;17.74;44.08;101795.50;5315341;27;20031;-73
2022/03/28 15:40:15;;;;;;;19.52;13.88;;;;;;;17.59;44.24;101794.72;5325855;28;20023;-72
2022/03/28 15:42:46;;;;;;;23.17;13.70;;;;;;;17.51;43.95;101791.81;5325024;28;20111;-74
2022/03/28 15:45:18;;;;;;;20.52;13.13;;;;;;;17.53;44.80;101786.72;5324127;28;20032;-71
2022/03/28 15:47:49;;;;;;;21.35;13.95;;;;;;;17.59;44.81;101788.28;5324145;28;20030;-72
2022/03/28 15:50:20;;;;;;;21.77;12.65;;;;;;;17.68;44.55;101783.56;5324004;28;20019;-71
2022/03/28 15:52:51;;;;;;;20.33;13.52;;;;;;;17.60;44.75;101784.31;5325549;28;20471;-72
2022/03/28 15:55:23;;;;;;;20.23;13.68;;;;;;;17.57;44.56;101785.78;5324469;28;20035;-72
2022/03/28 15:57:54;;;;;;;19.75;13.02;;;;;;;17.58;44.98;101781.00;5306874;28;20120;-72
2022/03/28 16:00:25;;;;;;;18.13;11.95;;;;;;;17.71;44.74;101779.31;5314165;28;20023;-73
2022/03/28 16:02:56;;;;;;;21.95;13.15;;;;;;;17.48;44.84;101782.03;5323612;28;20034;-72
2022/03/28 16:05:29;;;;;;;19.88;11.60;;;;;;;17.39;45.09;101773.56;5323347;28;20035;-71
2022/03/28 16:08:00;;;;;;;22.95;13.32;;;;;;;17.33;45.38;101777.63;5325000;28;20081;-71
2022/03/28 16:10:31;;;;;;;18.58;12.13;;;;;;;17.30;45.25;101774.59;5323694;28;20040;-71
2022/03/28 16:13:04;;;;;;;17.45;11.40;;;;;;;17.42;44.92;101769.28;5324565;28;20023;-72
2022/03/28 16:15:35;;;;;;;23.70;11.57;;;;;;;17.38;44.52;101771.06;5324873;28;20416;-72
2022/03/28 16:18:08;;;;;;;20.30;11.20;;;;;;;17.12;44.82;101765.16;5325291;28;20039;-72
2022/03/28 16:20:42;;;;;;;18.63;11.43;;;;;;;16.95;45.13;101769.44;5329216;28;20508;-71
2022/03/28 16:23:13;;;;;;;20.98;11.23;;;;;;;17.08;44.97;101772.56;5330742;28;20088;-71
2022/03/28 16:25:44;;;;;;;19.85;12.63;;;;;;;17.06;44.95;101775.66;5339082;28;20424;-79
2022/03/28 16:28:16;;;;;;;17.23;10.88;;;;;;;16.77;45.08;101770.31;5349376;27;20046;-79
2022/03/28 16:30:47;;;;;;;64.50;48.08;;;;;;;16.87;45.52;101770.16;5342115;28;20032;-79
2022/03/28 16:33:19;;;;;;;30.77;15.55;;;;;;;16.90;45.50;101768.72;5343170;28;20035;-79
2022/03/28 16:35:53;;;;;;;18.27;11.18;;;;;;;16.86;45.73;101762.03;5343483;28;20042;-80
2022/03/28 16:38:24;;;;;;;16.42;10.45;;;;;;;16.92;45.39;101763.59;5343613;28;20034;-80
2022/03/28 16:40:55;;;;;;;22.65;11.32;;;;;;;16.70;45.57;101755.88;5334271;28;20035;-80
2022/03/28 16:43:27;;;;;;;30.33;23.48;;;;;;;16.71;45.40;101760.34;5348036;27;20057;-81
2022/03/28 16:45:58;;;;;;;54.67;43.72;;;;;;;16.74;45.69;101751.31;5347443;27;20011;-80
2022/03/28 16:48:30;;;;;;;42.00;30.45;;;;;;;16.81;45.31;101753.75;5342669;28;20114;-80
2022/03/28 16:51:03;;;;;;;22.85;12.02;;;;;;;16.69;45.69;101743.84;5342565;28;20505;-80
2022/03/28 16:53:34;;;;;;;25.10;15.63;;;;;;;16.68;45.57;101742.19;5345203;28;20046;-79
2022/03/28 16:56:07;;;;;;;19.55;10.95;;;;;;;16.59;45.71;101748.78;5338333;28;20019;-78
2022/03/28 16:58:47;;;;;;;17.40;11.70;;;;;;;16.60;45.45;101733.66;5340007;28;20138;-80
2022/03/28 17:01:19;;;;;;;16.85;10.82;;;;;;;16.43;45.46;101737.06;5338215;27;20038;-79
2022/03/28 17:03:50;;;;;;;19.35;10.93;;;;;;;16.23;45.64;101739.09;5338852;28;20024;-80
2022/03/28 17:06:21;;;;;;;18.05;9.93;;;;;;;16.35;45.79;101738.59;5337400;28;20067;-80
2022/03/28 17:08:53;;;;;;;17.27;10.25;;;;;;;16.30;45.39;101741.47;5336368;28;20031;-80
2022/03/28 17:11:24;;;;;;;17.95;11.50;;;;;;;16.23;45.44;101733.50;5341490;28;20028;-81
2022/03/28 17:13:56;;;;;;;16.15;10.05;;;;;;;16.27;45.41;101737.31;5338279;27;20092;-81
2022/03/28 17:16:28;;;;;;;19.13;10.85;;;;;;;16.24;45.60;101726.75;5334917;28;20047;-81
2022/03/28 17:19:00;;;;;;;22.67;10.35;;;;;;;15.99;45.22;101724.38;5350603;27;20102;-82
2022/03/28 17:21:37;;;;;;;19.75;10.38;;;;;;;16.04;45.68;101736.31;5340076;28;20051;-80
2022/03/28 17:24:09;;;;;;;18.83;9.65;;;;;;;15.95;46.11;101731.72;5336324;28;20127;-79
2022/03/28 17:26:41;;;;;;;15.63;10.43;;;;;;;15.94;46.29;101722.50;5331254;28;20108;-81
2022/03/28 17:29:13;;;;;;;21.00;10.75;;;;;;;15.86;46.66;101728.78;5334167;28;20023;-82
